Flight Track Log - Related Links

Times and Time Zones

All times are in EST time to prevent confusion due to time zone crossing. See the N240JK flight status page for this flight to view local times or setup timezone preferences in your user account.

Time Position Orientation Groundspeed Altitude Reporting Facility
EST Latitude Longitude Course Direction KTS MPH feet Rate Location/Type
Mon 05:59:53 PM 27.9167 -82.6833 344° North 164 189 900  Level Tampa TRACON
Mon 06:00:53 PM 27.9667 -82.7000 344° North 192 221 2,800 2,284 Climbing Tampa TRACON
Mon 06:02:49 PM 28.0872 -82.7208 351° North 241 277 7,600 2,727 Climbing Jacksonville Center
Mon 06:03:49 PM 28.1706 -82.7253 357° North 272 313 10,800 3,250 Climbing Jacksonville Center
Mon 06:04:49 PM 28.2542 -82.7394 352° North 294 338 14,100 3,150 Climbing Jacksonville Center
Mon 06:05:49 PM 28.3522 -82.7606 349° North 326 375 17,100 2,900 Climbing Jacksonville Center
Mon 06:06:49 PM 28.4586 -82.7864 348° North 362 417 19,900 2,800 Climbing Jacksonville Center
Mon 06:07:49 PM 28.5672 -82.8122 348° North 382 440 22,700 2,500 Climbing Jacksonville Center
Mon 06:08:49 PM 28.6800 -82.8358 350° North 399 459 24,900 2,050 Climbing Jacksonville Center
Mon 06:09:49 PM 28.7969 -82.8642 348° North 411 473 26,800 1,950 Climbing Jacksonville Center
Mon 06:10:49 PM 28.9158 -82.8903 349° North 424 488 28,800 2,000 Climbing Jacksonville Center
Mon 06:11:49 PM 29.0389 -82.9186 349° North 437 503 30,800 1,950 Climbing Jacksonville Center
Mon 06:12:49 PM 29.1642 -82.9472 349° North 451 519 32,700 1,950 Climbing Jacksonville Center
Mon 06:13:49 PM 29.2811 -82.9903 342° North 445 512 34,700 1,950 Climbing Jacksonville Center
Mon 06:14:49 PM 29.4000 -83.0331 343° North 445 512 36,600 2,200 Climbing Jacksonville Center
Mon 06:15:49 PM 29.5314 -83.0811 342° North 439 505 39,100 1,700 Climbing Jacksonville Center
Mon 06:16:49 PM 29.6442 -83.1244 342° North 425 489 40,000 450 Climbing Jacksonville Center
Mon 06:17:49 PM 29.7611 -83.1678 342° North 432 497 40,000  Level Jacksonville Center
Mon 06:18:48 PM 29.8736 -83.2089 342° North 430 495 40,000  Level Jacksonville Center
Mon 06:19:49 PM 29.9883 -83.2547 341° North 425 489 40,000  Level Jacksonville Center
Mon 06:20:49 PM 30.0906 -83.2911 343° North 425 489 40,000  Level Jacksonville Center
Mon 06:21:49 PM 30.2031 -83.3347 341° North 425 489 40,000  Level Jacksonville Center
Mon 06:22:49 PM 30.3117 -83.3761 342° North 425 489 40,000  Level Jacksonville Center
Mon 06:23:49 PM 30.4219 -83.4178 342° North 425 489 40,000  Level Jacksonville Center
Mon 06:24:49 PM 30.5431 -83.4617 343° North 425 489 40,000  Level Jacksonville Center
Mon 06:25:49 PM 30.6492 -83.5036 341° North 419 482 40,000  Level Jacksonville Center
Mon 06:26:49 PM 30.7556 -83.5453 341° North 413 475 40,000  Level Jacksonville Center
Mon 06:27:49 PM 30.8639 -83.5897 341° North 406 467 40,000  Level Jacksonville Center
Mon 06:28:49 PM 30.9722 -83.6317 342° North 406 467 40,000  Level Jacksonville Center
Mon 06:29:49 PM 31.0806 -83.6711 343° North 411 473 40,000  Level Jacksonville Center
Mon 06:31:39 PM 31.2808 -83.7522 341° North 420 483 40,000  Level Atlanta Center
Mon 06:32:39 PM 31.3917 -83.7956 342° North 420 483 40,000  Level Atlanta Center
Mon 06:33:39 PM 31.5003 -83.8392 341° North 420 483 40,000  Level Atlanta Center
Mon 06:34:39 PM 31.6150 -83.8828 342° North 420 483 40,000  Level Atlanta Center
Mon 06:35:39 PM 31.7172 -83.9242 341° North 425 489 40,000  Level Atlanta Center
Mon 06:36:39 PM 31.8322 -83.9681 342° North 430 495 40,000  Level Atlanta Center
Mon 06:37:39 PM 31.9428 -84.0094 342° North 425 489 40,000  Level Atlanta Center
Mon 06:38:39 PM 32.0533 -84.0536 341° North 425 489 40,000  Level Atlanta Center
Mon 06:39:39 PM 32.1642 -84.0978 341° North 425 489 40,000  Level Atlanta Center
Mon 06:40:39 PM 32.2747 -84.1419 341° North 425 489 40,000  Level Atlanta Center
Mon 06:41:39 PM 32.3853 -84.1864 341° North 425 489 40,000  Level Atlanta Center
Mon 06:42:39 PM 32.4936 -84.2286 342° North 425 489 40,000  Level Atlanta Center
Mon 06:43:39 PM 32.6042 -84.2756 340° North 420 483 40,000  Level Atlanta Center
Mon 06:44:39 PM 32.7106 -84.3178 342° North 415 478 40,000  Level Atlanta Center
Mon 06:45:39 PM 32.8169 -84.3625 341° North 405 466 40,000  Level Atlanta Center
Mon 06:46:39 PM 32.9275 -84.4075 341° North 405 466 40,000  Level Atlanta Center
Mon 06:47:39 PM 33.0317 -84.4478 342° North 405 466 40,000  Level Atlanta Center
Mon 06:48:39 PM 33.1506 -84.4953 342° North 405 466 40,000  Level Atlanta Center
Mon 06:49:39 PM 33.2569 -84.5381 341° North 405 466 40,000  Level Atlanta Center
Mon 06:50:39 PM 33.3589 -84.5811 341° North 400 460 40,000  Level Atlanta Center
Mon 06:51:39 PM 33.4611 -84.6239 341° North 393 452 40,000  Level Atlanta Center
Mon 06:52:39 PM 33.5611 -84.6644 341° North 383 441 40,000  Level Atlanta Center
Mon 06:53:39 PM 33.6589 -84.7053 341° North 377 434 40,000  Level Atlanta Center
Mon 06:54:39 PM 33.7631 -84.7458 342° North 377 434 40,000  Level Atlanta Center
Mon 06:55:39 PM 33.8608 -84.7894 340° North 382 440 40,000  Level Atlanta Center
Mon 06:56:39 PM 33.9608 -84.8278 342° North 382 440 40,000  Level Atlanta Center
Mon 06:57:39 PM 34.0567 -84.8664 342° North 389 448 40,000  Level Atlanta Center
Mon 06:58:39 PM 34.1669 -84.9125 341° North 384 442 40,000  Level Atlanta Center
Mon 06:59:39 PM 34.2708 -84.9539 342° North 384 442 40,000  Level Atlanta Center
Mon 07:00:39 PM 34.3728 -84.9978 340° North 384 442 40,000  Level Atlanta Center
Mon 07:01:39 PM 34.4747 -85.0417 340° North 384 442 40,000  Level Atlanta Center
Mon 07:02:39 PM 34.5789 -85.0833 342° North 384 442 40,000  Level Atlanta Center
Mon 07:03:39 PM 34.6786 -85.1275 340° North 384 442 40,000  Level Atlanta Center
Mon 07:04:39 PM 34.7825 -85.1692 342° North 384 442 40,000  Level Atlanta Center
Mon 07:05:39 PM 34.8844 -85.2111 341° North 385 443 40,000  Level Atlanta Center
Mon 07:06:39 PM 34.9861 -85.2556 340° North 385 443 40,000  Level Atlanta Center
Mon 07:07:39 PM 35.0900 -85.3003 341° North 385 443 40,000  Level Atlanta Center
Mon 07:08:39 PM 35.1919 -85.3450 340° North 385 443 40,000  Level Atlanta Center
Mon 07:09:33 PM 35.2783 -85.3797 342° North 400 460 40,000  Level Memphis Center
Mon 07:10:34 PM 35.3853 -85.4258 341° North 404 465 40,000  Level Memphis Center
Mon 07:11:35 PM 35.4939 -85.4714 341° North 407 468 40,000  Level Memphis Center
Mon 07:12:37 PM 35.6011 -85.5169 341° North 406 467 40,000  Level Memphis Center
Mon 07:13:38 PM 35.7072 -85.5636 340° North 402 463 40,000  Level Memphis Center
Mon 07:14:39 PM 35.8139 -85.6103 340° North 403 464 40,000  Level Memphis Center
Mon 07:15:41 PM 35.9197 -85.6556 341° North 400 460 40,000  Level Memphis Center
Mon 07:16:42 PM 36.0453 -85.7111 340° North 397 457 40,000  Level Memphis Center
Mon 07:17:44 PM 36.1500 -85.7575 340° North 397 457 40,000  Level Memphis Center
Mon 07:18:23 PM 36.2128 -85.7850 341° North 396 456 40,000  Level Indianapolis Center
Mon 07:19:25 PM 36.3103 -85.8278 341° North 392 451 40,000  Level Indianapolis Center
Mon 07:20:26 PM 36.4144 -85.8731 341° North 393 452 40,000  Level Indianapolis Center
Mon 07:21:27 PM 36.5375 -85.9281 340° North 401 461 40,000  Level Indianapolis Center
Mon 07:22:28 PM 36.6439 -85.9742 341° North 401 461 40,000  Level Indianapolis Center
Mon 07:23:30 PM 36.7511 -86.0211 341° North 404 465 40,000  Level Indianapolis Center
Mon 07:24:31 PM 36.8581 -86.0697 340° North 405 466 40,000  Level Indianapolis Center
Mon 07:25:32 PM 36.9642 -86.1164 341° North 404 465 40,000  Level Indianapolis Center
Mon 07:26:34 PM 37.0719 -86.1650 340° North 407 468 40,000  Level Indianapolis Center
Mon 07:27:35 PM 37.1792 -86.2119 341° North 406 467 40,000  Level Indianapolis Center
Mon 07:28:36 PM 37.2867 -86.2619 340° North 407 468 40,000  Level Indianapolis Center
Mon 07:29:37 PM 37.3942 -86.3103 340° North 407 468 40,000  Level Indianapolis Center
Mon 07:30:38 PM 37.5006 -86.3564 341° North 403 464 40,000  Level Indianapolis Center
Mon 07:31:40 PM 37.6058 -86.4064 339° North 402 463 40,000  Level Indianapolis Center
Mon 07:32:41 PM 37.7111 -86.4550 340° North 400 460 40,000  Level Indianapolis Center
Mon 07:33:42 PM 37.8228 -86.5061 340° North 402 463 40,000  Level Indianapolis Center
Mon 07:34:43 PM 37.9272 -86.5542 340° North 399 459 40,000  Level Indianapolis Center
Mon 07:35:44 PM 38.0331 -86.6031 340° North 402 463 40,000  Level Indianapolis Center
Mon 07:36:45 PM 38.1375 -86.6503 340° North 399 459 40,000  Level Indianapolis Center
Mon 07:37:47 PM 38.2425 -86.6994 340° North 401 461 40,000  Level Indianapolis Center
Mon 07:38:48 PM 38.3469 -86.7503 339° North 403 464 40,000  Level Indianapolis Center
Mon 07:39:49 PM 38.4731 -86.8072 341° North 403 464 40,000  Level Indianapolis Center
Mon 07:40:50 PM 38.5767 -86.8575 339° North 401 461 40,000  Level Indianapolis Center
Mon 07:41:51 PM 38.6814 -86.9078 339° North 402 463 40,000  Level Indianapolis Center
Mon 07:42:53 PM 38.7864 -86.9567 340° North 401 461 40,000  Level Indianapolis Center
Mon 07:43:54 PM 38.8917 -87.0061 340° North 401 461 40,000  Level Indianapolis Center
Mon 07:44:55 PM 38.9958 -87.0564 339° North 398 458 40,000  Level Indianapolis Center
Mon 07:45:56 PM 39.1017 -87.1056 340° North 399 459 40,000  Level Indianapolis Center
Mon 07:46:58 PM 39.2042 -87.1564 339° North 402 463 40,000  Level Indianapolis Center
Mon 07:47:59 PM 39.3092 -87.2058 340° North 402 463 40,000  Level Indianapolis Center
Mon 07:49:00 PM 39.4144 -87.2572 339° North 403 464 40,000  Level Indianapolis Center
Mon 07:50:01 PM 39.5181 -87.3058 340° North 399 459 40,000  Level Indianapolis Center
Mon 07:51:02 PM 39.6219 -87.3558 340° North 399 459 40,000  Level Indianapolis Center
Mon 07:52:03 PM 39.7461 -87.4161 340° North 398 458 40,000  Level Indianapolis Center
Mon 07:53:05 PM 39.8494 -87.4658 340° North 397 457 40,000  Level Indianapolis Center
Mon 07:54:06 PM 39.9533 -87.5158 340° North 398 458 40,000  Level Indianapolis Center
Mon 07:55:07 PM 40.0572 -87.5681 339° North 399 459 40,000  Level Indianapolis Center
Mon 07:56:08 PM 40.1608 -87.6189 339° North 399 459 40,000  Level Indianapolis Center
Mon 07:57:09 PM 40.2644 -87.6706 339° North 399 459 40,000  Level Indianapolis Center
Mon 07:58:11 PM 40.3681 -87.7200 340° North 398 458 40,000  Level Indianapolis Center
Mon 07:59:12 PM 40.4714 -87.7742 338° Northwest 400 460 40,000  Level Indianapolis Center
Mon 08:00:13 PM 40.5761 -87.8250 340° North 400 460 40,000  Level Indianapolis Center
Mon 08:01:14 PM 40.6797 -87.8753 340° North 399 459 40,000  Level Indianapolis Center
Mon 08:02:15 PM 40.8028 -87.9397 338° Northwest 398 458 40,000  Level Indianapolis Center
Mon 08:03:16 PM 40.9058 -87.9917 339° North 398 458 40,000 -934 Level Indianapolis Center
Mon 08:04:17 PM 41.0081 -88.0414 340° North 395 455 38,100 -2,425 Descending Indianapolis Center
Mon 08:05:42 PM 41.1481 -88.1136 339° North 396 456 34,100 -2,877 Descending Chicago Center
Mon 08:06:43 PM 41.2519 -88.1669 339° North 397 457 31,100 -2,016 Descending Chicago Center
Mon 08:07:44 PM 41.3506 -88.2172 339° North 377 434 30,000 -541 Descending Chicago Center
Mon 08:08:45 PM 41.4528 -88.2675 340° North 382 440 30,000 -689 Level Chicago Center
Mon 08:09:46 PM 41.5586 -88.3158 341° North 395 455 28,600 -2,262 Descending Chicago Center
Mon 08:10:47 PM 41.6678 -88.3156 360° North 388 447 25,400 -3,268 Descending Chicago Center
Mon 08:11:49 PM 41.7717 -88.3150 360° North 373 429 21,900 -3,366 Descending Chicago Center
Mon 08:12:50 PM 41.8697 -88.3131 North 354 407 18,500 -2,803 Descending Chicago Center
Mon 08:13:51 PM 41.9633 -88.3131 360° North 337 388 16,200 -1,180 Descending Chicago Center
Mon 08:14:52 PM 42.0542 -88.3111 North 327 376 16,100 -49 Descending Chicago Center
Mon 08:15:53 PM 42.1461 -88.3117 360° North 329 379 16,100  Level Chicago Center
Mon 08:16:55 PM 42.2583 -88.3100 North 334 384 16,100 -195 Level Chicago Center
Mon 08:17:56 PM 42.3422 -88.3100 360° North 337 388 15,700 -787 Descending Chicago Center
Mon 08:18:57 PM 42.4375 -88.3075 North 342 394 14,500 -1,328 Descending Chicago Center
Mon 08:19:58 PM 42.5272 -88.3067 360° North 327 376 13,000 -1,659 Descending Chicago Center
Mon 08:21:00 PM 42.6319 -88.2944 North 316 364 11,100 -1,805 Descending Chicago Center
Mon 08:22:01 PM 42.7089 -88.2850 North 284 327 9,300 -1,820 Descending Chicago Center
Mon 08:23:02 PM 42.7689 -88.2739 North 222 255 7,400 -1,918 Descending Chicago Center
Mon 08:24:03 PM 42.8331 -88.2642 North 229 264 5,400 -1,707 Descending Chicago Center
Mon 08:25:05 PM 42.8944 -88.2522 North 227 261 3,900 -1,220 Descending Chicago Center
Mon 08:26:06 PM 42.9497 -88.2383 10° North 216 249 2,900 -639 Descending Chicago Center
Mon 08:27:07 PM 42.9833 -88.1844 50° Northeast 210 242 2,600 -295 Descending Chicago Center
Mon 08:28:08 PM 43.0158 -88.1550 34° Northeast 186 214 2,300 -390 Descending Chicago Center
Mon 08:29:10 PM 43.0336 -88.1872 307° West 143 165 1,800 -439 Descending Chicago Center
Mon 08:30:11 PM 43.0411 -88.2353 282° West 131 151 1,400 -393 Descending Chicago Center

Login

Don't have an account? Register now (free) for customized features, flight alerts, and more!